Time;durP1;ratioP1;P1;durP2;ratioP2;P2;SDS_P1;SDS_P2;PMS_P1;PMS_P2;Temp;Humidity;BMP_temperature;BMP_pressure;BME280_temperature;BME280_humidity;BME280_pressure;Samples;Min_cycle;Max_cycle;Signal;HPM_P1;HPM_P2
2022/03/11 00:01:49;;;;;;;10.70;6.38;;;10.10;57.70;;;;;;6130984;23;20044;-87
2022/03/11 00:04:23;;;;;;;11.68;6.80;;;10.00;57.10;;;;;;6155693;23;20010;-88
2022/03/11 00:06:49;;;;;;;12.82;7.40;;;10.00;57.80;;;;;;6106827;23;20009;-87
2022/03/11 00:09:15;;;;;;;11.23;7.03;;;9.90;58.80;;;;;;6155743;23;20109;-87
2022/03/11 00:11:40;;;;;;;11.73;7.38;;;9.90;58.60;;;;;;6106706;23;20014;-88
2022/03/11 00:14:06;;;;;;;11.77;7.25;;;9.80;58.30;;;;;;6155496;23;20006;-87
2022/03/11 00:16:32;;;;;;;12.82;7.07;;;9.70;58.40;;;;;;6131503;23;20037;-87
2022/03/11 00:18:58;;;;;;;16.13;7.55;;;9.70;58.50;;;;;;6131489;23;20005;-87
2022/03/11 00:21:23;;;;;;;13.70;7.25;;;9.70;59.20;;;;;;6107044;23;20065;-87
2022/03/11 00:23:49;;;;;;;12.13;7.07;;;9.60;58.40;;;;;;6108064;23;20025;-87
2022/03/11 00:26:15;;;;;;;12.95;7.25;;;9.60;59.50;;;;;;6157530;23;20009;-87
2022/03/11 00:28:40;;;;;;;11.20;7.40;;;9.60;58.90;;;;;;6156394;23;20009;-87
2022/03/11 00:31:06;;;;;;;13.20;7.32;;;9.50;59.00;;;;;;6131619;23;20025;-87
2022/03/11 00:33:32;;;;;;;12.73;7.72;;;9.40;59.00;;;;;;6156117;23;20008;-87
2022/03/11 00:35:58;;;;;;;14.63;8.00;;;9.40;59.00;;;;;;6155655;23;20310;-87
2022/03/11 00:38:25;;;;;;;14.10;7.38;;;9.30;59.80;;;;;;6154691;23;20088;-87
2022/03/11 00:40:56;;;;;;;11.50;7.05;;;9.30;59.10;;;;;;6155460;23;20005;-87
2022/03/11 00:43:26;;;;;;;13.70;7.88;;;9.30;60.00;;;;;;6155633;23;20092;-87
2022/03/11 00:45:52;;;;;;;11.90;6.80;;;9.20;59.40;;;;;;6131315;23;20333;-87
2022/03/11 00:48:19;;;;;;;14.55;7.22;;;9.20;59.00;;;;;;6156962;23;20056;-88
2022/03/11 00:50:46;;;;;;;15.73;8.82;;;9.10;59.40;;;;;;6131197;23;20014;-87
2022/03/11 00:53:11;;;;;;;12.90;7.70;;;9.10;59.70;;;;;;6155634;23;20032;-87
2022/03/11 00:55:37;;;;;;;16.90;7.85;;;9.00;60.20;;;;;;6106957;23;20441;-87
2022/03/11 00:58:03;;;;;;;16.92;8.60;;;9.00;59.60;;;;;;6131038;23;20005;-87
2022/03/11 01:01:02;;;;;;;15.23;7.97;;;8.90;60.40;;;;;;6158958;23;20008;-87
2022/03/11 01:03:28;;;;;;;12.80;7.78;;;8.90;61.30;;;;;;6186988;23;20005;-87
2022/03/11 01:05:53;;;;;;;13.32;7.63;;;8.80;61.60;;;;;;6140956;23;20494;-87
2022/03/11 01:08:19;;;;;;;15.07;8.25;;;8.80;61.90;;;;;;6164994;23;20095;-87
2022/03/11 01:10:45;;;;;;;14.48;8.43;;;8.80;61.40;;;;;;6190388;23;20446;-87
2022/03/11 01:13:10;;;;;;;14.00;8.35;;;8.70;61.00;;;;;;6140611;23;20045;-87
2022/03/11 01:15:36;;;;;;;14.90;8.25;;;8.70;60.80;;;;;;6165289;23;20004;-88
2022/03/11 01:18:02;;;;;;;14.40;8.02;;;8.60;61.00;;;;;;6140712;23;20387;-87
2022/03/11 01:20:27;;;;;;;12.88;8.18;;;8.60;61.30;;;;;;6165539;23;20075;-88
2022/03/11 01:22:53;;;;;;;12.98;8.18;;;8.60;61.20;;;;;;6140843;23;20005;-87
2022/03/11 01:25:19;;;;;;;16.52;8.27;;;8.50;61.10;;;;;;6165491;23;20364;-87
2022/03/11 01:27:44;;;;;;;12.57;8.07;;;8.50;61.30;;;;;;6140932;23;20091;-88
2022/03/11 01:30:13;;;;;;;14.98;8.57;;;8.50;61.50;;;;;;6165158;23;20103;-87
2022/03/11 01:32:43;;;;;;;19.52;9.30;;;8.40;62.10;;;;;;6189953;23;20027;-87
2022/03/11 01:35:09;;;;;;;16.48;9.32;;;8.40;63.00;;;;;;6165701;23;20380;-87
2022/03/11 01:37:35;;;;;;;14.20;8.68;;;8.40;61.80;;;;;;6190074;23;20416;-88
2022/03/11 01:40:02;;;;;;;14.52;8.30;;;8.40;62.60;;;;;;6165274;23;20004;-87
2022/03/11 01:42:28;;;;;;;15.18;8.93;;;8.30;61.50;;;;;;6165557;23;20324;-88
2022/03/11 01:44:53;;;;;;;17.17;8.25;;;8.30;61.70;;;;;;6167428;23;20004;-88
2022/03/11 01:47:19;;;;;;;14.75;8.82;;;8.30;61.30;;;;;;6166921;23;20009;-88
2022/03/11 01:49:45;;;;;;;15.00;8.70;;;8.20;61.30;;;;;;6142472;23;20009;-87
2022/03/11 01:52:14;;;;;;;15.00;8.43;;;8.20;61.30;;;;;;6191975;23;20015;-87
2022/03/11 01:54:42;;;;;;;15.30;8.32;;;8.20;61.20;;;;;;6166748;23;20111;-87
2022/03/11 01:57:10;;;;;;;14.15;8.32;;;8.20;61.20;;;;;;6167035;23;20088;-87
2022/03/11 01:59:35;;;;;;;15.80;8.43;;;8.20;61.80;;;;;;6192180;23;20012;-87
2022/03/11 02:02:01;;;;;;;14.60;8.57;;;8.10;62.20;;;;;;6166980;23;20016;-88
2022/03/11 02:04:27;;;;;;;16.73;8.65;;;8.10;61.60;;;;;;6192005;23;20011;-87
2022/03/11 02:06:54;;;;;;;13.20;8.55;;;8.10;61.60;;;;;;6167236;23;20009;-88
2022/03/11 02:09:19;;;;;;;14.77;8.98;;;8.10;62.00;;;;;;6167443;23;20095;-87
2022/03/11 02:11:46;;;;;;;19.15;8.20;;;8.10;61.80;;;;;;6166920;23;20055;-87
2022/03/11 02:14:12;;;;;;;15.40;8.65;;;8.10;62.30;;;;;;6167008;23;20012;-88
2022/03/11 02:16:40;;;;;;;14.68;9.15;;;8.00;61.90;;;;;;6166847;23;20151;-87
2022/03/11 02:19:06;;;;;;;15.38;9.23;;;8.00;62.20;;;;;;6191475;23;20000;-87
2022/03/11 02:21:44;;;;;;;17.20;8.77;;;8.00;62.10;;;;;;6191442;23;20001;-87
2022/03/11 02:24:10;;;;;;;16.73;8.80;;;8.00;62.80;;;;;;6217887;23;20034;-89
2022/03/11 02:26:36;;;;;;;16.08;9.23;;;7.90;62.70;;;;;;6191706;23;20432;-88
2022/03/11 02:29:03;;;;;;;16.15;9.57;;;7.90;63.30;;;;;;6166443;23;20066;-89
2022/03/11 02:31:30;;;;;;;16.13;8.70;;;7.90;63.40;;;;;;6166584;23;20009;-88
2022/03/11 02:33:56;;;;;;;14.70;8.30;;;7.90;63.60;;;;;;6191411;23;20036;-89
2022/03/11 02:36:22;;;;;;;13.98;8.82;;;7.90;63.70;;;;;;6167115;23;20059;-88
2022/03/11 02:38:48;;;;;;;16.55;9.35;;;7.90;64.00;;;;;;6166945;23;20004;-88
2022/03/11 02:41:14;;;;;;;15.13;8.68;;;7.80;64.10;;;;;;6167008;23;20336;-89
2022/03/11 02:43:41;;;;;;;14.93;8.52;;;7.80;64.30;;;;;;6191425;23;20493;-89
2022/03/11 02:46:11;;;;;;;15.50;8.75;;;7.80;64.50;;;;;;6167211;23;20320;-88
2022/03/11 02:48:37;;;;;;;13.77;8.93;;;7.80;63.80;;;;;;6191310;23;20011;-89
2022/03/11 02:51:04;;;;;;;14.68;9.02;;;7.70;64.90;;;;;;6142085;23;20008;-88
2022/03/11 02:53:29;;;;;;;13.55;8.75;;;7.70;64.10;;;;;;6166479;23;20123;-89
2022/03/11 02:55:55;;;;;;;13.85;8.80;;;7.60;64.10;;;;;;6191360;23;20033;-88
2022/03/11 02:58:21;;;;;;;13.85;8.25;;;7.60;64.30;;;;;;6191170;23;20304;-88
2022/03/11 03:00:47;;;;;;;14.88;8.65;;;7.60;64.40;;;;;;6191076;23;20004;-89
2022/03/11 03:03:12;;;;;;;14.93;8.23;;;7.60;64.50;;;;;;6166134;23;20020;-89
2022/03/11 03:05:38;;;;;;;14.00;8.93;;;7.50;64.40;;;;;;6217805;23;20366;-88
2022/03/11 03:08:04;;;;;;;16.15;9.57;;;7.50;64.80;;;;;;6191376;23;20392;-89
2022/03/11 03:10:30;;;;;;;16.00;9.30;;;7.50;65.70;;;;;;6166507;23;20008;-88
2022/03/11 03:12:56;;;;;;;13.57;8.23;;;7.40;65.20;;;;;;6166435;23;20000;-88
2022/03/11 03:15:22;;;;;;;16.52;8.90;;;7.40;65.20;;;;;;6166184;23;20013;-89
2022/03/11 03:17:47;;;;;;;16.63;8.95;;;7.40;65.00;;;;;;6190807;23;20087;-89
2022/03/11 03:20:14;;;;;;;15.52;9.30;;;7.30;65.40;;;;;;6141633;23;20012;-89
2022/03/11 03:22:40;;;;;;;28.08;10.40;;;7.30;65.30;;;;;;6165797;23;20119;-88
2022/03/11 03:25:08;;;;;;;13.07;8.10;;;7.20;66.00;;;;;;6191104;23;20009;-88
2022/03/11 03:27:34;;;;;;;15.68;8.65;;;7.20;66.30;;;;;;6166382;23;20313;-89
2022/03/11 03:29:59;;;;;;;13.40;8.50;;;7.20;66.80;;;;;;6165876;23;20011;-88
2022/03/11 03:32:25;;;;;;;16.33;9.57;;;7.20;66.70;;;;;;6166157;23;20005;-88
2022/03/11 03:34:50;;;;;;;14.80;8.35;;;7.10;66.20;;;;;;6141252;23;20040;-89
2022/03/11 03:37:16;;;;;;;15.43;9.20;;;7.10;66.70;;;;;;6141524;23;20008;-89
2022/03/11 03:39:42;;;;;;;14.00;9.38;;;7.10;66.40;;;;;;6141448;23;20001;-89
2022/03/11 03:42:09;;;;;;;14.88;9.23;;;7.00;66.00;;;;;;6191065;23;20008;-88
2022/03/11 03:44:35;;;;;;;15.63;8.68;;;7.00;66.50;;;;;;6217376;23;20001;-89
2022/03/11 03:47:00;;;;;;;14.98;9.65;;;7.00;67.20;;;;;;6166055;23;20012;-88
2022/03/11 03:49:26;;;;;;;13.50;8.48;;;7.00;67.60;;;;;;6165648;23;20016;-89
2022/03/11 03:51:52;;;;;;;14.27;8.98;;;6.90;67.60;;;;;;6190846;23;20005;-89
2022/03/11 03:54:18;;;;;;;14.55;9.70;;;6.90;68.10;;;;;;6165083;23;20008;-88
2022/03/11 03:56:45;;;;;;;14.23;8.90;;;6.90;68.40;;;;;;6190838;23;19996;-88
2022/03/11 03:59:12;;;;;;;14.98;9.30;;;6.90;67.90;;;;;;6165652;23;20008;-89
2022/03/11 04:01:39;;;;;;;12.80;8.43;;;6.90;68.30;;;;;;6165845;23;20348;-88
2022/03/11 04:04:06;;;;;;;16.48;9.68;;;6.90;68.00;;;;;;6141437;23;20004;-88
2022/03/11 04:06:33;;;;;;;15.57;8.93;;;6.80;68.10;;;;;;6165500;23;20431;-88
2022/03/11 04:09:00;;;;;;;14.32;9.02;;;6.80;67.90;;;;;;6190411;23;20008;-88
2022/03/11 04:11:27;;;;;;;14.27;9.20;;;6.80;68.70;;;;;;6166083;23;20005;-88
2022/03/11 04:13:54;;;;;;;12.80;8.60;;;6.80;69.10;;;;;;6190653;23;20004;-88
2022/03/11 04:16:20;;;;;;;13.85;9.10;;;6.70;68.30;;;;;;6190788;23;20371;-88
2022/03/11 04:18:47;;;;;;;16.10;8.85;;;6.70;68.40;;;;;;6141465;23;20079;-89
2022/03/11 04:21:13;;;;;;;14.57;8.90;;;6.70;68.20;;;;;;6141593;23;20000;-88
2022/03/11 04:23:43;;;;;;;15.43;8.70;;;6.70;68.60;;;;;;6141644;23;20092;-88
2022/03/11 04:26:09;;;;;;;14.55;9.10;;;6.60;68.90;;;;;;6190712;23;20074;-88
2022/03/11 04:28:36;;;;;;;13.43;8.70;;;6.60;69.60;;;;;;6141676;23;20088;-88
2022/03/11 04:31:04;;;;;;;12.85;8.40;;;6.60;69.80;;;;;;6191085;23;20078;-88
2022/03/11 04:33:30;;;;;;;17.65;9.68;;;6.50;70.00;;;;;;6191453;23;20001;-89
2022/03/11 04:35:56;;;;;;;12.73;8.15;;;6.50;69.40;;;;;;6191562;23;20003;-88
2022/03/11 04:38:21;;;;;;;14.32;9.45;;;6.50;70.00;;;;;;6192127;23;20023;-89
2022/03/11 04:40:47;;;;;;;15.73;9.07;;;6.50;70.00;;;;;;6142147;23;20032;-88
2022/03/11 04:43:13;;;;;;;15.38;8.77;;;6.50;69.90;;;;;;6167509;23;20005;-88
2022/03/11 04:45:39;;;;;;;13.40;8.45;;;6.50;69.90;;;;;;6198460;23;20024;-88
2022/03/11 04:48:06;;;;;;;12.63;8.52;;;6.50;70.80;;;;;;6204374;23;20028;-88
2022/03/11 04:50:32;;;;;;;13.77;8.73;;;6.40;70.50;;;;;;6155783;23;20004;-88
2022/03/11 04:52:57;;;;;;;14.57;8.88;;;6.40;71.10;;;;;;6205730;23;20448;-89
2022/03/11 04:55:24;;;;;;;14.30;8.68;;;6.40;70.50;;;;;;6175849;23;20017;-89
2022/03/11 04:57:50;;;;;;;13.90;8.52;;;6.40;70.40;;;;;;6174585;23;20059;-89
2022/03/11 05:00:16;;;;;;;13.35;8.98;;;6.40;71.00;;;;;;6149648;23;20083;-88
2022/03/11 05:02:44;;;;;;;14.57;9.55;;;6.30;71.20;;;;;;6139208;23;20459;-89
2022/03/11 05:05:12;;;;;;;16.17;8.10;;;6.40;71.40;;;;;;6189343;23;20009;-88
2022/03/11 05:07:38;;;;;;;13.55;8.07;;;6.30;70.90;;;;;;6164176;23;20009;-88
2022/03/11 05:10:06;;;;;;;15.02;8.68;;;6.30;70.90;;;;;;6165619;23;20016;-88
2022/03/11 05:12:32;;;;;;;14.00;8.95;;;6.20;70.90;;;;;;6170374;23;20485;-89
2022/03/11 05:14:59;;;;;;;15.85;9.02;;;6.20;70.80;;;;;;6143682;23;20017;-89
2022/03/11 05:17:24;;;;;;;15.35;8.63;;;6.20;70.40;;;;;;6168842;23;20027;-89
2022/03/11 05:19:50;;;;;;;14.98;9.10;;;6.20;70.40;;;;;;6144751;23;20365;-88
2022/03/11 05:22:17;;;;;;;13.52;8.48;;;6.20;70.80;;;;;;6165496;23;20029;-88
2022/03/11 05:24:43;;;;;;;13.38;8.60;;;6.10;70.50;;;;;;6190420;23;20005;-88
2022/03/11 05:27:08;;;;;;;14.45;8.95;;;6.10;70.70;;;;;;6157407;23;20005;-88
2022/03/11 05:29:35;;;;;;;15.60;8.60;;;6.10;70.60;;;;;;6157300;23;20099;-88
2022/03/11 05:32:01;;;;;;;15.25;8.55;;;6.10;70.60;;;;;;6157339;23;20017;-88
2022/03/11 05:34:27;;;;;;;17.25;9.20;;;6.10;70.80;;;;;;6157399;23;20002;-88
2022/03/11 05:36:53;;;;;;;14.65;8.13;;;6.10;71.20;;;;;;6157503;23;20001;-88
2022/03/11 05:39:19;;;;;;;15.88;8.48;;;6.10;71.00;;;;;;6157418;23;20006;-88
2022/03/11 05:41:48;;;;;;;14.73;8.90;;;6.10;71.10;;;;;;6157156;23;19997;-88
2022/03/11 05:44:18;;;;;;;14.90;8.38;;;6.10;71.20;;;;;;6157287;23;20009;-88
2022/03/11 05:46:44;;;;;;;14.32;8.65;;;6.10;71.10;;;;;;6157390;23;20100;-88
2022/03/11 05:49:10;;;;;;;16.88;8.63;;;6.00;71.30;;;;;;6157276;23;20016;-89
2022/03/11 05:51:37;;;;;;;14.85;8.55;;;6.00;71.20;;;;;;6157199;23;20048;-88
2022/03/11 05:54:03;;;;;;;15.85;8.65;;;6.00;71.20;;;;;;6181983;23;20009;-88
2022/03/11 05:56:29;;;;;;;14.75;9.00;;;6.00;71.50;;;;;;6181821;23;20002;-88
2022/03/11 05:58:55;;;;;;;15.35;8.98;;;6.00;71.50;;;;;;6132869;23;20016;-88
2022/03/11 06:01:20;;;;;;;17.70;9.57;;;6.00;71.40;;;;;;6192686;23;20093;-88
2022/03/11 06:03:46;;;;;;;18.52;8.98;;;6.00;71.40;;;;;;6167836;23;20009;-88
2022/03/11 06:06:16;;;;;;;13.68;8.30;;;6.00;71.40;;;;;;6168453;23;20020;-88
2022/03/11 06:08:42;;;;;;;15.00;8.25;;;6.00;72.20;;;;;;6192438;23;20009;-88
2022/03/11 06:11:11;;;;;;;15.68;8.70;;;5.90;71.50;;;;;;6192181;23;20028;-88
2022/03/11 06:13:37;;;;;;;13.68;8.88;;;5.90;71.50;;;;;;6167436;23;20009;-88
2022/03/11 06:16:03;;;;;;;13.95;8.27;;;5.90;71.60;;;;;;6195015;23;20043;-89
2022/03/11 06:18:30;;;;;;;14.63;8.57;;;5.90;71.90;;;;;;6199117;23;20001;-85
2022/03/11 06:20:56;;;;;;;15.65;8.57;;;5.90;71.80;;;;;;6196553;23;20005;-89
2022/03/11 06:23:22;;;;;;;14.30;8.77;;;5.90;71.90;;;;;;6169346;23;20011;-87
2022/03/11 06:25:48;;;;;;;15.30;8.45;;;5.90;71.90;;;;;;6196403;23;20031;-87
2022/03/11 06:28:14;;;;;;;15.02;8.50;;;5.90;71.90;;;;;;6196758;23;20001;-89
2022/03/11 06:30:47;;;;;;;14.23;8.43;;;5.90;72.00;;;;;;6157016;23;20013;-88
2022/03/11 06:33:13;;;;;;;13.88;9.02;;;5.90;71.90;;;;;;6174285;23;20043;-88
2022/03/11 06:35:39;;;;;;;15.32;9.63;;;5.90;72.00;;;;;;6197674;23;20005;-89
2022/03/11 06:38:05;;;;;;;14.98;8.30;;;5.90;71.80;;;;;;6174795;23;20359;-89
2022/03/11 06:40:30;;;;;;;18.60;8.80;;;5.90;72.10;;;;;;6171515;23;20311;-88
2022/03/11 06:42:56;;;;;;;19.40;8.65;;;5.80;71.80;;;;;;6169826;23;20040;-89
2022/03/11 06:45:23;;;;;;;16.85;9.30;;;5.80;72.20;;;;;;6195182;23;20117;-89
2022/03/11 06:47:49;;;;;;;20.75;8.70;;;5.90;72.00;;;;;;6193237;23;20008;-89
2022/03/11 06:50:17;;;;;;;16.88;8.65;;;5.90;72.00;;;;;;6194726;23;20020;-89
2022/03/11 06:52:43;;;;;;;15.55;9.10;;;5.90;71.70;;;;;;6193846;23;20375;-89
2022/03/11 06:55:09;;;;;;;17.52;9.43;;;5.90;71.80;;;;;;6194977;23;20412;-88
2022/03/11 06:57:35;;;;;;;15.52;9.55;;;5.90;71.60;;;;;;6196219;23;20004;-89
2022/03/11 07:00:01;;;;;;;17.55;9.18;;;5.90;71.50;;;;;;6171506;23;20016;-89
2022/03/11 07:02:27;;;;;;;17.52;9.25;;;6.00;71.70;;;;;;6221733;23;20013;-88
2022/03/11 07:04:53;;;;;;;18.92;9.05;;;6.00;71.40;;;;;;6144452;23;20100;-89
2022/03/11 07:07:18;;;;;;;17.65;9.55;;;6.00;71.50;;;;;;6192172;23;20008;-89
2022/03/11 07:09:44;;;;;;;16.58;8.73;;;6.00;71.50;;;;;;6167296;23;20447;-89
2022/03/11 07:12:10;;;;;;;17.10;9.48;;;6.00;71.40;;;;;;6166618;23;20450;-89
2022/03/11 07:14:36;;;;;;;16.05;9.60;;;6.10;71.40;;;;;;6142144;23;20024;-89
2022/03/11 07:17:06;;;;;;;16.92;8.13;;;6.10;71.30;;;;;;6166507;23;20012;-89
2022/03/11 07:19:33;;;;;;;18.10;9.15;;;6.20;71.40;;;;;;6191140;23;20001;-88
2022/03/11 07:22:01;;;;;;;15.07;9.05;;;6.20;71.00;;;;;;6190907;23;20005;-89
2022/03/11 07:24:27;;;;;;;15.77;9.32;;;6.20;71.20;;;;;;6191358;23;20107;-89
2022/03/11 07:26:53;;;;;;;15.60;9.18;;;6.30;71.20;;;;;;6190518;23;20009;-89
2022/03/11 07:29:18;;;;;;;16.48;9.27;;;6.30;70.80;;;;;;6164990;23;20036;-89
2022/03/11 07:31:45;;;;;;;16.33;8.80;;;6.30;70.40;;;;;;6189636;23;20000;-84
2022/03/11 07:34:11;;;;;;;15.93;9.00;;;6.40;69.90;;;;;;6190104;23;20012;-86
2022/03/11 07:36:37;;;;;;;15.32;8.93;;;6.40;69.20;;;;;;6190363;23;20007;-86
2022/03/11 07:39:04;;;;;;;15.35;8.82;;;6.50;69.30;;;;;;6189882;23;20407;-86
2022/03/11 07:41:31;;;;;;;15.30;8.55;;;6.50;69.10;;;;;;6190193;23;20055;-86
2022/03/11 07:43:57;;;;;;;15.38;8.82;;;6.60;68.90;;;;;;6190167;23;20415;-86
2022/03/11 07:46:23;;;;;;;17.45;8.70;;;6.70;68.80;;;;;;6189851;23;20008;-86
2022/03/11 07:48:52;;;;;;;18.10;9.40;;;6.70;68.80;;;;;;6191524;23;20422;-89
2022/03/11 07:51:18;;;;;;;19.25;9.68;;;6.80;68.20;;;;;;6172816;23;20011;-88
2022/03/11 07:53:44;;;;;;;15.60;8.57;;;6.80;68.60;;;;;;6171447;23;20399;-88
2022/03/11 07:56:11;;;;;;;18.98;9.77;;;6.90;67.70;;;;;;6224323;23;20007;-89
2022/03/11 07:58:39;;;;;;;17.30;8.50;;;7.00;68.10;;;;;;6201813;23;20000;-88
2022/03/11 08:01:07;;;;;;;16.55;9.30;;;7.00;67.70;;;;;;6177642;23;20005;-90
2022/03/11 08:03:33;;;;;;;17.17;9.52;;;7.10;67.60;;;;;;6200043;23;20403;-89
2022/03/11 08:06:00;;;;;;;16.85;9.20;;;7.20;67.20;;;;;;6199691;23;20006;-88
2022/03/11 08:08:25;;;;;;;15.38;8.88;;;7.30;67.20;;;;;;6149084;23;20087;-89
2022/03/11 08:10:52;;;;;;;21.17;9.63;;;7.30;67.20;;;;;;6148632;23;20066;-89
2022/03/11 08:13:18;;;;;;;20.63;9.93;;;7.40;66.50;;;;;;6149662;23;20419;-90
2022/03/11 08:15:43;;;;;;;16.08;9.60;;;7.50;66.90;;;;;;6174372;23;20020;-89
2022/03/11 08:18:09;;;;;;;19.13;9.95;;;7.50;66.90;;;;;;6176065;23;20328;-86
2022/03/11 08:20:35;;;;;;;20.08;9.95;;;7.60;66.60;;;;;;6202936;23;20005;-89
2022/03/11 08:23:00;;;;;;;17.58;9.90;;;7.70;66.10;;;;;;6228811;23;20009;-90
2022/03/11 08:25:29;;;;;;;17.02;9.85;;;7.70;65.40;;;;;;6158050;23;20345;-89
2022/03/11 08:27:56;;;;;;;17.13;9.70;;;7.70;65.10;;;;;;6159169;23;20005;-90
2022/03/11 08:30:24;;;;;;;22.83;10.05;;;7.80;64.90;;;;;;6206520;23;20007;-89
2022/03/11 08:32:51;;;;;;;19.05;10.73;;;7.90;64.40;;;;;;6203585;23;20012;-89
2022/03/11 08:35:17;;;;;;;18.85;10.48;;;7.90;65.60;;;;;;6253842;23;20005;-89
2022/03/11 08:37:44;;;;;;;18.60;9.98;;;7.90;65.00;;;;;;6195819;23;20026;-89
2022/03/11 08:40:11;;;;;;;18.08;10.30;;;8.10;65.50;;;;;;6221224;23;20012;-89
2022/03/11 08:42:38;;;;;;;19.75;10.57;;;8.20;66.00;;;;;;6193852;23;19997;-89
2022/03/11 08:45:10;;;;;;;15.75;10.30;;;8.20;65.40;;;;;;6170870;23;20035;-89
2022/03/11 08:47:36;;;;;;;20.77;11.05;;;8.30;64.90;;;;;;6168598;23;20013;-88
2022/03/11 08:50:03;;;;;;;17.80;9.95;;;8.30;64.20;;;;;;6217043;23;20012;-88
2022/03/11 08:52:29;;;;;;;19.35;10.52;;;8.40;64.80;;;;;;6168888;23;20104;-88
2022/03/11 08:54:59;;;;;;;18.33;9.95;;;8.50;65.30;;;;;;6169634;23;20058;-88
2022/03/11 08:57:25;;;;;;;18.73;11.43;;;8.60;65.50;;;;;;6169874;23;20015;-88
2022/03/11 08:59:50;;;;;;;20.45;11.70;;;8.60;65.50;;;;;;6219319;23;20013;-88
2022/03/11 09:02:17;;;;;;;17.92;10.52;;;8.70;64.40;;;;;;6161157;23;20064;-89
2022/03/11 09:04:43;;;;;;;18.58;10.65;;;8.80;63.60;;;;;;6160224;23;20096;-88
2022/03/11 09:07:09;;;;;;;21.15;11.38;;;8.90;64.10;;;;;;6158135;23;20002;-88
2022/03/11 09:09:36;;;;;;;19.02;11.10;;;8.90;63.80;;;;;;6159448;23;20060;-88
2022/03/11 09:12:03;;;;;;;22.23;12.23;;;9.00;63.30;;;;;;6133901;23;20010;-88
2022/03/11 09:14:32;;;;;;;19.75;11.75;;;9.00;63.10;;;;;;6158169;23;20017;-88
2022/03/11 09:16:59;;;;;;;17.98;11.43;;;9.10;63.60;;;;;;6160164;23;20386;-88
2022/03/11 09:19:25;;;;;;;16.73;10.73;;;9.20;62.90;;;;;;6133744;23;20433;-87
2022/03/11 09:21:51;;;;;;;20.25;11.48;;;9.30;63.10;;;;;;6158596;23;20017;-87
2022/03/11 09:24:17;;;;;;;21.70;13.00;;;9.30;61.80;;;;;;6133603;23;20092;-87
2022/03/11 09:26:47;;;;;;;17.27;10.65;;;9.40;62.80;;;;;;6159239;23;20006;-87
2022/03/11 09:29:13;;;;;;;23.85;11.85;;;9.50;62.40;;;;;;6159719;23;20001;-88
2022/03/11 09:31:39;;;;;;;21.15;11.77;;;9.60;62.50;;;;;;6158128;23;20017;-87
2022/03/11 09:34:05;;;;;;;18.20;11.30;;;9.60;61.90;;;;;;6133386;23;20036;-88
2022/03/11 09:36:30;;;;;;;21.92;13.10;;;9.70;61.20;;;;;;6159786;23;20005;-87
2022/03/11 09:38:56;;;;;;;20.80;12.27;;;9.80;62.00;;;;;;6158182;23;20001;-87
2022/03/11 09:41:29;;;;;;;19.15;12.02;;;9.90;61.50;;;;;;6157966;23;20016;-87
2022/03/11 09:43:56;;;;;;;18.30;11.63;;;10.00;61.80;;;;;;6158032;23;20096;-88
2022/03/11 09:46:22;;;;;;;19.23;12.38;;;10.10;61.20;;;;;;6158539;23;20017;-87
2022/03/11 09:48:48;;;;;;;18.27;12.15;;;10.20;60.60;;;;;;6158022;23;20016;-88
2022/03/11 09:51:15;;;;;;;18.38;12.00;;;10.30;61.30;;;;;;6158270;23;20013;-88
2022/03/11 09:53:42;;;;;;;18.92;11.65;;;10.40;60.60;;;;;;6158126;23;20064;-88
2022/03/11 09:56:08;;;;;;;22.15;12.75;;;10.50;60.50;;;;;;6158508;23;20420;-87
2022/03/11 09:58:34;;;;;;;20.85;11.90;;;10.70;61.20;;;;;;6159716;23;20116;-88
2022/03/11 10:01:00;;;;;;;20.38;12.02;;;10.80;60.30;;;;;;6160630;23;20009;-88
2022/03/11 10:03:29;;;;;;;21.35;13.48;;;10.90;58.40;;;;;;6158439;23;20009;-88
2022/03/11 10:05:55;;;;;;;22.08;12.48;;;11.00;59.10;;;;;;6135412;23;20013;-88
2022/03/11 10:08:53;;;;;;;22.25;11.85;;;11.00;58.20;;;;;;6160308;23;20380;-88
2022/03/11 10:11:25;;;;;;;18.98;11.95;;;11.10;59.10;;;;;;6076051;23;20006;-88
2022/03/11 10:13:52;;;;;;;23.92;12.77;;;11.20;59.20;;;;;;6163008;23;20013;-88
2022/03/11 10:16:21;;;;;;;19.48;11.88;;;11.30;58.50;;;;;;6172796;23;20537;-82
2022/03/11 10:18:58;;;;;;;20.00;11.25;;;11.40;59.20;;;;;;6186896;23;20019;-81
2022/03/11 10:21:31;;;;;;;19.10;12.80;;;11.50;58.30;;;;;;6185352;23;20005;-82
2022/03/11 10:23:57;;;;;;;21.77;12.80;;;11.70;58.50;;;;;;6185330;23;20425;-82
2022/03/11 10:26:41;;;;;;;20.27;12.68;;;11.80;58.30;;;;;;6181834;23;20088;-81
2022/03/11 10:29:11;;;;;;;18.52;11.65;;;11.90;57.90;;;;;;6160787;23;20432;-82
2022/03/11 10:31:45;;;;;;;19.60;12.38;;;12.00;58.70;;;;;;6185270;23;20005;-82
2022/03/11 10:34:37;;;;;;;19.35;12.30;;;12.10;57.30;;;;;;6181660;23;20500;-82
2022/03/11 10:37:02;;;;;;;19.92;12.50;;;12.20;57.40;;;;;;6185218;23;20028;-82
2022/03/11 10:39:28;;;;;;;20.27;12.60;;;12.30;57.70;;;;;;6185219;23;20004;-82
2022/03/11 10:41:59;;;;;;;21.70;12.45;;;12.40;57.20;;;;;;6187021;23;20003;-82
2022/03/11 10:44:27;;;;;;;21.98;13.18;;;12.50;57.10;;;;;;6185143;23;20005;-82
2022/03/11 10:46:54;;;;;;;18.60;12.50;;;12.60;55.80;;;;;;6186639;23;20001;-81
2022/03/11 10:49:31;;;;;;;22.70;12.93;;;12.60;56.40;;;;;;6136056;23;20055;-82
2022/03/11 10:51:58;;;;;;;20.05;11.32;;;12.70;56.80;;;;;;6185089;23;20001;-81
2022/03/11 10:54:26;;;;;;;18.45;12.40;;;12.80;56.80;;;;;;6184790;23;20012;-81
2022/03/11 10:56:52;;;;;;;20.63;12.63;;;13.00;56.40;;;;;;6184659;23;20341;-82
2022/03/11 10:59:21;;;;;;;20.40;12.98;;;13.00;55.80;;;;;;6185063;23;20048;-81
2022/03/11 11:01:47;;;;;;;23.23;12.60;;;13.10;56.00;;;;;;6185106;23;20028;-82
2022/03/11 11:04:14;;;;;;;24.65;13.02;;;13.20;55.60;;;;;;6160223;23;20433;-81
2022/03/11 11:06:41;;;;;;;20.00;12.65;;;13.30;55.90;;;;;;6185122;23;20438;-81
2022/03/11 11:09:09;;;;;;;23.83;12.70;;;13.40;55.70;;;;;;6184561;23;20337;-82
2022/03/11 11:11:35;;;;;;;19.65;12.43;;;13.50;56.00;;;;;;6160159;23;20005;-81
2022/03/11 11:14:07;;;;;;;20.17;12.95;;;13.60;55.40;;;;;;6184800;23;20032;-84
2022/03/11 11:16:42;;;;;;;17.77;12.05;;;13.70;54.90;;;;;;6188762;23;20013;-84
2022/03/11 11:19:13;;;;;;;20.70;13.43;;;13.80;55.00;;;;;;6193308;23;19997;-83
2022/03/11 11:21:39;;;;;;;;;;;14.00;54.60;;;;;;6196384;23;20009;-83
2022/03/11 11:24:14;;;;;;;20.65;12.63;;;14.00;54.00;;;;;;6195691;23;20326;-84
2022/03/11 11:26:43;;;;;;;16.92;12.30;;;14.00;53.40;;;;;;6201398;23;20005;-84
2022/03/11 11:29:09;;;;;;;18.58;12.93;;;14.10;54.00;;;;;;6200524;23;20016;-84
2022/03/11 11:31:35;;;;;;;19.00;12.40;;;14.20;52.90;;;;;;6186116;23;20001;-86
2022/03/11 11:34:01;;;;;;;21.95;12.32;;;14.20;53.00;;;;;;6135822;23;20009;-85
2022/03/11 11:36:40;;;;;;;21.80;12.90;;;14.30;52.70;;;;;;6186340;23;20009;-83
2022/03/11 11:39:08;;;;;;;19.65;12.85;;;14.40;53.50;;;;;;6184698;23;20005;-82
2022/03/11 11:41:35;;;;;;;19.95;13.07;;;14.50;53.00;;;;;;6159784;23;20100;-83
2022/03/11 11:44:02;;;;;;;19.55;12.45;;;14.60;53.50;;;;;;6159446;23;20009;-83
2022/03/11 11:46:29;;;;;;;18.95;13.18;;;14.60;52.20;;;;;;6184319;23;20009;-83
2022/03/11 11:48:56;;;;;;;16.85;12.43;;;14.60;52.40;;;;;;6185751;23;20030;-82
2022/03/11 11:51:40;;;;;;;21.13;13.30;;;14.70;52.10;;;;;;6186766;23;20333;-90
2022/03/11 11:54:11;;;;;;;19.00;12.30;;;14.80;52.40;;;;;;6186301;23;20281;-91
2022/03/11 11:56:41;;;;;;;17.58;12.05;;;14.90;52.10;;;;;;6162755;23;20449;-91
2022/03/11 11:59:17;;;;;;;22.83;12.70;;;14.90;51.60;;;;;;6186306;23;20001;-91
2022/03/11 12:01:55;;;;;;;18.05;12.48;;;15.00;53.10;;;;;;6187803;23;20001;-91
2022/03/11 12:04:21;;;;;;;20.63;12.88;;;15.10;51.70;;;;;;6187568;23;20035;-91
2022/03/11 12:06:57;;;;;;;19.75;12.90;;;15.10;51.50;;;;;;6187911;23;20028;-91
2022/03/11 12:09:41;;;;;;;20.05;12.60;;;15.20;52.10;;;;;;6189706;23;20001;-90
2022/03/11 12:12:25;;;;;;;21.10;13.05;;;15.30;50.10;;;;;;6195055;23;20005;-91
2022/03/11 12:14:57;;;;;;;18.00;12.23;;;15.30;51.50;;;;;;6189304;23;20005;-91
2022/03/11 12:17:38;;;;;;;21.48;13.77;;;15.40;51.80;;;;;;6189054;23;20084;-91
2022/03/11 12:20:34;;;;;;;21.83;12.18;;;15.50;52.10;;;;;;6187689;23;20023;-92
2022/03/11 12:23:05;;;;;;;19.25;12.70;;;15.60;50.80;;;;;;6187825;23;20008;-90
2022/03/11 12:25:39;;;;;;;19.20;12.00;;;15.70;50.30;;;;;;6187990;23;20084;-91
2022/03/11 12:28:08;;;;;;;18.83;11.93;;;15.80;51.80;;;;;;6188103;23;20001;-91
2022/03/11 12:30:47;;;;;;;19.80;11.63;;;15.90;50.40;;;;;;6188038;23;20005;-91
2022/03/11 12:33:18;;;;;;;22.25;13.10;;;16.00;50.50;;;;;;6187445;23;20012;-90
2022/03/11 12:35:46;;;;;;;23.63;13.80;;;16.00;51.30;;;;;;6162779;23;20017;-90
2022/03/11 12:38:17;;;;;;;18.40;12.52;;;16.10;50.10;;;;;;6187738;23;19997;-90
2022/03/11 12:40:45;;;;;;;22.75;11.90;;;16.10;51.10;;;;;;6190288;23;20051;-90
2022/03/11 12:43:12;;;;;;;22.23;13.35;;;16.20;51.40;;;;;;6188019;23;20005;-91